createdAt,value
2023-07-20T00:00:42.923Z,76.53
2023-07-20T00:03:25.420Z,76.48
2023-07-20T00:06:06.577Z,76.38
2023-07-20T00:08:45.873Z,76.33
2023-07-20T00:11:25.295Z,76.13
2023-07-20T00:14:09.661Z,75.93
2023-07-20T00:16:48.967Z,75.28
2023-07-20T00:19:28.421Z,75.13
2023-07-20T00:22:07.806Z,75.33
2023-07-20T00:24:47.123Z,75.00
2023-07-20T00:27:26.435Z,75.05
2023-07-20T00:30:12.108Z,75.06
2023-07-20T00:32:51.956Z,74.94
2023-07-20T00:35:31.328Z,74.56
2023-07-20T00:38:10.967Z,73.99
2023-07-20T00:40:50.547Z,74.17
2023-07-20T00:43:29.948Z,74.64
2023-07-20T00:46:15.911Z,74.94
2023-07-20T00:48:55.367Z,75.10
2023-07-20T00:51:35.629Z,75.26
2023-07-20T00:54:15.174Z,75.56
2023-07-20T00:56:55.137Z,75.17
2023-07-20T00:59:34.784Z,75.20
2023-07-20T01:02:19.202Z,75.04
2023-07-20T01:04:58.848Z,74.75
2023-07-20T01:07:45.773Z,74.84
2023-07-20T01:10:33.829Z,74.74
2023-07-20T01:13:17.001Z,73.88
2023-07-20T01:15:58.868Z,73.88
2023-07-20T01:18:43.361Z,73.93
2023-07-20T01:21:32.670Z,73.90
2023-07-20T01:24:36.090Z,73.68
2023-07-20T01:27:45.168Z,73.33
2023-07-20T01:31:00.660Z,73.25
2023-07-20T01:33:48.769Z,73.34
2023-07-20T01:36:31.304Z,73.52
2023-07-20T01:39:11.070Z,73.78
2023-07-20T01:41:51.045Z,74.10
2023-07-20T01:44:30.436Z,74.11
2023-07-20T01:47:09.767Z,74.13
2023-07-20T01:49:54.555Z,74.36
2023-07-20T01:52:33.886Z,74.36
2023-07-20T01:55:14.548Z,74.25
2023-07-20T01:57:53.890Z,74.21
2023-07-20T02:00:33.684Z,74.32
2023-07-20T02:03:14.280Z,74.35
2023-07-20T02:05:59.316Z,74.72
2023-07-20T02:08:38.713Z,74.70
2023-07-20T02:11:18.043Z,74.83
2023-07-20T02:13:57.400Z,74.21
2023-07-20T02:16:36.871Z,74.33
2023-07-20T02:19:16.375Z,73.93
2023-07-20T02:22:00.789Z,74.01
2023-07-20T02:24:40.517Z,74.53
2023-07-20T02:27:19.961Z,74.52
2023-07-20T02:29:59.348Z,74.51
2023-07-20T02:32:39.692Z,74.76
2023-07-20T02:35:19.063Z,74.91
2023-07-20T02:38:03.535Z,75.02
2023-07-20T02:40:42.902Z,74.59
2023-07-20T02:43:22.300Z,74.33
2023-07-20T02:46:02.007Z,74.17
2023-07-20T02:48:41.402Z,74.27
2023-07-20T02:51:20.776Z,74.31
2023-07-20T02:54:05.653Z,74.32
2023-07-20T02:56:45.021Z,74.19
2023-07-20T02:59:24.513Z,74.18
2023-07-20T03:02:04.272Z,74.21
2023-07-20T03:04:44.025Z,74.51
2023-07-20T03:07:23.354Z,74.66
2023-07-20T03:10:09.767Z,74.60
2023-07-20T03:12:49.122Z,74.27
2023-07-20T03:15:28.528Z,73.92
2023-07-20T03:18:07.980Z,73.57
2023-07-20T03:20:48.051Z,73.40
2023-07-20T03:23:28.688Z,73.61
2023-07-20T03:26:13.088Z,73.92
2023-07-20T03:28:52.475Z,74.12
2023-07-20T03:31:31.852Z,74.36
2023-07-20T03:34:12.328Z,74.64
2023-07-20T03:36:53.164Z,74.89
2023-07-20T03:39:32.510Z,74.96
2023-07-20T03:42:17.166Z,74.97
2023-07-20T03:44:56.510Z,74.91
2023-07-20T03:47:35.916Z,75.06
2023-07-20T03:50:16.615Z,75.15
2023-07-20T03:52:55.998Z,75.51
2023-07-20T03:55:35.409Z,75.71
2023-07-20T03:58:19.908Z,76.15
2023-07-20T04:01:00.479Z,76.10
2023-07-20T04:03:40.912Z,75.74
2023-07-20T04:06:20.412Z,75.33
2023-07-20T04:08:59.776Z,74.92
2023-07-20T04:11:39.196Z,74.53
2023-07-20T04:14:23.642Z,74.47
2023-07-20T04:17:03.018Z,74.40
2023-07-20T04:19:42.461Z,74.83
2023-07-20T04:22:22.538Z,75.19
2023-07-20T04:25:01.888Z,75.36
2023-07-20T04:27:41.334Z,75.44
2023-07-20T04:30:27.211Z,75.23
2023-07-20T04:33:06.669Z,75.38
2023-07-20T04:35:57.830Z,75.81
2023-07-20T04:38:37.230Z,75.56
2023-07-20T04:41:17.154Z,75.45
2023-07-20T04:43:56.716Z,75.49
2023-07-20T04:46:43.737Z,75.51
2023-07-20T04:49:24.903Z,75.70
2023-07-20T04:52:05.135Z,75.77
2023-07-20T04:54:44.515Z,75.34
2023-07-20T04:57:23.871Z,75.13
2023-07-20T05:00:03.397Z,75.47
2023-07-20T05:02:49.724Z,75.73
2023-07-20T05:05:29.432Z,75.60
2023-07-20T05:08:08.907Z,75.44
2023-07-20T05:10:48.315Z,75.37
2023-07-20T05:13:28.162Z,75.48
2023-07-20T05:16:07.598Z,75.61
2023-07-20T05:18:52.128Z,75.57
2023-07-20T05:21:31.504Z,75.75
2023-07-20T05:24:11.028Z,76.17
2023-07-20T05:26:50.406Z,76.02
2023-07-20T05:29:29.768Z,75.86
2023-07-20T05:32:09.499Z,75.65
2023-07-20T05:34:53.960Z,75.74
2023-07-20T05:37:33.369Z,75.98
2023-07-20T05:40:14.470Z,76.15
2023-07-20T05:42:54.341Z,75.86
2023-07-20T05:45:33.674Z,75.94
2023-07-20T05:48:14.033Z,75.83
2023-07-20T05:50:58.601Z,75.88
2023-07-20T05:53:38.013Z,75.69
2023-07-20T05:56:17.544Z,75.40
2023-07-20T05:58:56.857Z,75.18
2023-07-20T06:01:36.217Z,75.49
2023-07-20T06:04:15.707Z,75.57
2023-07-20T06:07:00.166Z,75.70
2023-07-20T06:09:39.582Z,75.80
2023-07-20T06:12:19.152Z,75.14
2023-07-20T06:15:01.921Z,74.71
2023-07-20T06:17:41.436Z,74.24
2023-07-20T06:20:21.127Z,74.82
2023-07-20T06:23:05.794Z,74.12
2023-07-20T06:25:45.163Z,73.09
2023-07-20T06:28:24.493Z,73.08
2023-07-20T06:31:08.612Z,72.98
2023-07-20T06:33:48.072Z,71.16
2023-07-20T06:36:28.310Z,70.41
2023-07-20T06:41:56.114Z,69.19
2023-07-20T06:44:35.501Z,68.76
2023-07-20T06:47:15.157Z,67.70
2023-07-20T06:49:54.532Z,65.35
2023-07-20T06:52:33.921Z,66.52
2023-07-20T06:55:23.557Z,63.53
2023-07-20T07:00:44.783Z,63.10
2023-07-20T07:03:28.383Z,61.82
2023-07-20T07:06:09.221Z,61.44
2023-07-20T07:08:48.881Z,60.64
2023-07-20T07:11:33.807Z,60.00
2023-07-20T07:14:13.283Z,58.62
2023-07-20T07:16:58.040Z,59.20
2023-07-20T07:19:38.693Z,59.17
2023-07-20T07:22:18.827Z,59.09
2023-07-20T07:24:58.212Z,58.32
2023-07-20T07:27:42.630Z,59.34
2023-07-20T07:30:22.330Z,58.21
2023-07-20T07:33:02.232Z,57.98
2023-07-20T07:35:41.615Z,57.56
2023-07-20T07:38:43.083Z,57.58
2023-07-20T07:41:22.977Z,58.32
2023-07-20T07:44:07.813Z,57.10
2023-07-20T07:46:47.323Z,56.26
2023-07-20T07:49:26.791Z,56.08
2023-07-20T07:52:06.319Z,56.02
2023-07-20T07:54:45.754Z,55.57
2023-07-20T07:57:25.218Z,56.03
2023-07-20T08:00:13.179Z,54.76
2023-07-20T08:02:52.632Z,54.37
2023-07-20T08:05:32.263Z,54.80
2023-07-20T08:08:12.074Z,54.18
2023-07-20T08:10:51.392Z,53.37
2023-07-20T08:13:30.737Z,53.26
2023-07-20T08:16:15.249Z,53.43
2023-07-20T08:18:54.917Z,52.01
2023-07-20T08:21:34.437Z,50.76
2023-07-20T08:24:14.761Z,51.12
2023-07-20T08:26:54.229Z,52.25
2023-07-20T08:29:33.692Z,51.15
2023-07-20T08:32:18.480Z,51.49
2023-07-20T08:34:57.814Z,51.64
2023-07-20T08:37:37.243Z,52.65
2023-07-20T08:40:18.063Z,50.98
2023-07-20T08:42:58.532Z,50.27
2023-07-20T08:45:41.459Z,49.64
2023-07-20T08:48:28.849Z,50.01
2023-07-20T08:51:12.703Z,48.95
2023-07-20T08:53:55.901Z,49.06
2023-07-20T08:56:35.336Z,49.24
2023-07-20T08:59:16.874Z,48.80
2023-07-20T09:01:57.345Z,48.64
2023-07-20T09:04:42.880Z,49.04
2023-07-20T09:07:22.846Z,49.85
2023-07-20T09:10:08.318Z,48.90
2023-07-20T09:12:50.187Z,49.00
2023-07-20T09:15:31.369Z,48.72
2023-07-20T09:18:11.270Z,47.41
2023-07-20T09:20:56.312Z,47.78
2023-07-20T09:23:39.685Z,47.86
2023-07-20T09:26:20.352Z,46.30
2023-07-20T09:29:01.960Z,45.71
2023-07-20T09:31:42.248Z,46.16
2023-07-20T09:37:10.698Z,44.86
2023-07-20T09:42:37.073Z,44.37
2023-07-20T09:45:17.859Z,43.91
2023-07-20T09:50:40.824Z,40.75
2023-07-20T09:53:26.660Z,39.29
2023-07-20T09:56:07.459Z,40.69
2023-07-20T09:58:48.593Z,40.61
2023-07-20T10:01:32.235Z,40.61
2023-07-20T10:04:12.499Z,41.15
2023-07-20T10:06:58.162Z,40.13
2023-07-20T10:09:48.235Z,38.90
2023-07-20T10:12:31.255Z,39.68
2023-07-20T10:15:20.590Z,37.28
2023-07-20T10:18:15.960Z,38.23
2023-07-20T10:23:42.496Z,38.57
2023-07-20T10:26:27.384Z,38.31
2023-07-20T10:29:09.099Z,37.41
2023-07-20T10:31:49.126Z,36.92
2023-07-20T10:34:29.002Z,34.99
2023-07-20T10:37:09.190Z,35.44
2023-07-20T10:39:48.741Z,35.66
2023-07-20T10:42:42.537Z,34.81
2023-07-20T10:45:22.346Z,34.40
2023-07-20T10:48:04.936Z,32.40
2023-07-20T10:50:44.565Z,34.07
2023-07-20T10:53:25.264Z,35.39
2023-07-20T10:56:15.511Z,35.18
2023-07-20T10:59:06.057Z,35.08
2023-07-20T11:01:45.507Z,35.96
2023-07-20T11:04:25.832Z,35.77
2023-07-20T11:07:05.246Z,35.64
2023-07-20T11:09:49.210Z,33.83
2023-07-20T11:12:29.094Z,34.78
2023-07-20T11:15:16.007Z,34.17
2023-07-20T11:17:55.544Z,34.91
2023-07-20T11:20:35.716Z,34.63
2023-07-20T11:23:15.290Z,35.43
2023-07-20T11:25:54.717Z,35.67
2023-07-20T11:28:34.180Z,36.41
2023-07-20T11:31:23.502Z,36.21
2023-07-20T11:39:37.212Z,34.42
2023-07-20T11:45:02.756Z,34.47
2023-07-20T11:47:48.782Z,34.67
2023-07-20T11:50:28.530Z,33.59
2023-07-20T11:53:09.259Z,33.14
2023-07-20T11:55:49.637Z,33.48
2023-07-20T11:58:29.179Z,33.20
2023-07-20T12:01:08.638Z,32.51
2023-07-20T12:03:53.177Z,32.49
2023-07-20T12:06:34.661Z,31.96
2023-07-20T12:09:14.179Z,32.55
2023-07-20T12:11:57.594Z,33.50
2023-07-20T12:14:36.992Z,31.64
2023-07-20T12:17:17.280Z,32.80
2023-07-20T12:20:06.020Z,32.70
2023-07-20T12:22:48.364Z,33.01
2023-07-20T12:25:27.859Z,32.60
2023-07-20T12:28:10.275Z,32.76
2023-07-20T12:30:58.667Z,32.48
2023-07-20T12:33:38.017Z,33.03
2023-07-20T12:36:23.181Z,33.64
2023-07-20T12:39:03.718Z,33.64
2023-07-20T12:41:43.146Z,33.50
2023-07-20T12:44:22.480Z,34.02
2023-07-20T12:47:01.888Z,34.90
2023-07-20T12:49:41.581Z,35.84
2023-07-20T12:52:26.004Z,36.02
2023-07-20T12:55:05.814Z,35.85
2023-07-20T12:57:46.381Z,35.50
2023-07-20T13:00:26.456Z,35.44
2023-07-20T13:03:10.037Z,35.78
2023-07-20T13:08:39.287Z,33.93
2023-07-20T13:11:18.605Z,33.51
2023-07-20T13:13:57.974Z,32.85
2023-07-20T13:16:38.037Z,33.53
2023-07-20T13:19:17.412Z,32.51
2023-07-20T13:21:56.741Z,32.52
2023-07-20T13:24:41.299Z,32.92
2023-07-20T13:27:20.809Z,33.47
2023-07-20T13:30:00.763Z,33.41
2023-07-20T13:32:41.520Z,33.15
2023-07-20T13:35:23.984Z,33.31
2023-07-20T13:38:05.936Z,33.55
2023-07-20T13:40:50.393Z,32.89
2023-07-20T13:43:29.793Z,32.30
2023-07-20T13:46:09.164Z,32.16
2023-07-20T13:51:35.563Z,32.28
2023-07-20T13:57:03.456Z,33.19
2023-07-20T13:59:43.147Z,33.79
2023-07-20T14:07:49.585Z,34.05
2023-07-20T14:10:29.071Z,33.62
2023-07-20T14:13:13.562Z,34.42
2023-07-20T14:15:53.105Z,34.46
2023-07-20T14:18:33.473Z,34.83
2023-07-20T14:21:12.946Z,34.64
2023-07-20T14:23:54.626Z,33.81
2023-07-20T14:26:34.502Z,32.26
2023-07-20T14:29:20.327Z,31.63
2023-07-20T14:31:59.703Z,32.07
2023-07-20T14:34:40.003Z,31.75
2023-07-20T14:37:19.772Z,31.91
2023-07-20T14:40:00.840Z,31.91
2023-07-20T14:42:40.376Z,31.89
2023-07-20T14:45:24.892Z,32.08
2023-07-20T14:48:04.308Z,32.30
2023-07-20T14:50:43.742Z,31.88
2023-07-20T14:53:23.494Z,31.31
2023-07-20T14:56:07.691Z,31.09
2023-07-20T14:58:47.004Z,31.81
2023-07-20T15:01:31.701Z,31.70
2023-07-20T15:04:11.446Z,31.09
2023-07-20T15:06:50.961Z,30.10
2023-07-20T15:09:30.753Z,29.98
2023-07-20T15:12:10.445Z,28.23
2023-07-20T15:14:51.157Z,27.23
2023-07-20T15:17:35.605Z,27.63
2023-07-20T15:20:18.301Z,27.93
2023-07-20T15:22:57.718Z,28.56
2023-07-20T15:25:37.169Z,29.40
2023-07-20T15:28:16.637Z,28.09
2023-07-20T15:30:56.865Z,27.90
2023-07-20T15:33:41.418Z,28.58
2023-07-20T15:36:20.777Z,27.17
2023-07-20T15:39:00.155Z,26.72
2023-07-20T15:41:39.714Z,26.99
2023-07-20T15:44:20.980Z,27.81
2023-07-20T15:47:00.655Z,27.81
2023-07-20T15:49:46.892Z,27.05
2023-07-20T15:52:26.427Z,26.80
2023-07-20T15:55:06.877Z,26.54
2023-07-20T15:57:46.226Z,26.36
2023-07-20T16:00:27.313Z,27.40
2023-07-20T16:03:07.781Z,27.32
2023-07-20T16:05:52.246Z,26.49
2023-07-20T16:08:31.567Z,25.73
2023-07-20T16:11:10.960Z,26.07
2023-07-20T16:13:50.628Z,25.35
2023-07-20T16:16:30.086Z,25.67
2023-07-20T16:19:09.707Z,25.51
2023-07-20T16:21:54.219Z,25.84
2023-07-20T16:24:33.702Z,26.22
2023-07-20T16:27:14.692Z,26.98
2023-07-20T16:29:54.010Z,26.04
2023-07-20T16:32:33.371Z,26.33
2023-07-20T16:35:14.257Z,26.21
2023-07-20T16:48:55.530Z,27.32
2023-07-20T16:51:35.386Z,26.81
2023-07-20T16:54:19.874Z,26.13
2023-07-20T16:56:59.287Z,26.35
2023-07-20T16:59:40.612Z,26.86
2023-07-20T17:02:20.223Z,27.90
2023-07-20T17:05:00.361Z,28.22
2023-07-20T17:07:39.740Z,28.14
2023-07-20T17:10:24.647Z,28.08
2023-07-20T17:13:04.030Z,28.13
2023-07-20T17:15:43.556Z,27.95
2023-07-20T17:18:23.752Z,28.61
2023-07-20T17:21:03.090Z,28.57
2023-07-20T17:29:14.277Z,29.53
2023-07-20T17:31:54.675Z,29.72
2023-07-20T17:34:34.101Z,29.73
2023-07-20T17:45:30.297Z,31.05
2023-07-20T17:48:09.669Z,31.09
2023-07-20T17:50:49.064Z,30.48
2023-07-20T17:53:28.452Z,30.82
2023-07-20T17:56:08.225Z,31.70
2023-07-20T17:58:52.639Z,31.63
2023-07-20T18:01:32.189Z,31.75
2023-07-20T18:04:12.137Z,32.67
2023-07-20T18:06:51.529Z,32.21
2023-07-20T18:09:31.707Z,32.13
2023-07-20T18:12:11.582Z,32.98
2023-07-20T18:14:56.287Z,32.98
2023-07-20T18:17:35.686Z,33.45
2023-07-20T18:20:16.944Z,33.92
2023-07-20T18:22:56.339Z,34.12
2023-07-20T18:25:35.695Z,34.67
2023-07-20T18:28:15.010Z,35.34
2023-07-20T18:30:59.693Z,35.83
2023-07-20T18:33:39.030Z,35.94
2023-07-20T18:36:18.400Z,35.93
2023-07-20T18:38:57.719Z,36.26
2023-07-20T18:41:37.076Z,36.39
2023-07-20T18:44:16.615Z,37.23
2023-07-20T18:47:02.871Z,37.64
2023-07-20T18:49:42.214Z,37.45
2023-07-20T18:52:21.697Z,37.52
2023-07-20T18:55:01.045Z,38.02
2023-07-20T18:57:41.605Z,37.78
2023-07-20T19:00:24.044Z,37.93
2023-07-20T19:03:08.695Z,38.37
2023-07-20T19:05:48.160Z,37.47
2023-07-20T19:08:27.600Z,37.72
2023-07-20T19:13:51.884Z,38.07
2023-07-20T19:16:31.582Z,37.83
2023-07-20T19:19:17.313Z,37.99
2023-07-20T19:21:56.669Z,37.92
2023-07-20T19:24:36.078Z,38.78
2023-07-20T19:27:15.769Z,39.05
2023-07-20T19:29:55.268Z,39.08
2023-07-20T19:32:34.579Z,39.60
2023-07-20T19:35:19.300Z,39.63
2023-07-20T19:37:58.711Z,39.87
2023-07-20T19:40:38.161Z,39.55
2023-07-20T19:43:17.536Z,40.42
2023-07-20T19:45:57.413Z,40.50
2023-07-20T19:48:36.854Z,41.14
2023-07-20T19:51:21.295Z,41.57
2023-07-20T19:56:43.941Z,42.40
2023-07-20T19:59:23.330Z,43.05
2023-07-20T20:02:02.652Z,43.14
2023-07-20T20:07:31.094Z,43.94
2023-07-20T20:10:11.113Z,43.62
2023-07-20T20:12:51.335Z,43.69
2023-07-20T20:15:30.685Z,43.90
2023-07-20T20:18:10.954Z,44.60
2023-07-20T20:20:53.333Z,44.60
2023-07-20T20:23:39.970Z,44.61
2023-07-20T20:26:19.292Z,44.87
2023-07-20T20:28:58.646Z,45.74
2023-07-20T20:31:38.720Z,46.86
2023-07-20T20:34:18.072Z,47.44
2023-07-20T20:36:59.393Z,46.60
2023-07-20T20:39:43.788Z,47.67
2023-07-20T20:42:23.138Z,47.67
2023-07-20T20:45:02.621Z,47.85
2023-07-20T20:47:42.064Z,47.87
2023-07-20T20:50:22.265Z,48.01
2023-07-20T20:53:01.618Z,47.41
2023-07-20T20:55:46.035Z,47.38
2023-07-20T20:58:25.582Z,47.72
2023-07-20T21:01:09.375Z,48.25
2023-07-20T21:03:48.846Z,47.99
2023-07-20T21:06:28.438Z,47.89
2023-07-20T21:09:07.848Z,46.33
2023-07-20T21:11:52.354Z,46.85
2023-07-20T21:14:31.873Z,46.19
2023-07-20T21:17:11.682Z,45.59
2023-07-20T21:19:51.424Z,45.44
2023-07-20T21:22:30.825Z,44.78
2023-07-20T21:25:10.621Z,44.86
2023-07-20T21:27:55.140Z,44.76
2023-07-20T21:30:34.596Z,44.82
2023-07-20T21:33:16.206Z,47.61
2023-07-20T21:35:55.547Z,48.88
2023-07-20T21:38:35.682Z,49.39
2023-07-20T21:41:15.594Z,49.70
2023-07-20T21:44:00.066Z,49.43
2023-07-20T21:46:39.596Z,49.38
2023-07-20T21:49:19.107Z,49.45
2023-07-20T21:51:58.497Z,49.78
2023-07-20T21:54:38.120Z,50.45
2023-07-20T21:57:17.418Z,51.89
2023-07-20T22:00:01.899Z,52.61
2023-07-20T22:02:41.421Z,53.03
2023-07-20T22:05:23.412Z,52.46
2023-07-20T22:08:04.069Z,52.16
2023-07-20T22:10:43.534Z,51.97
2023-07-20T22:13:22.956Z,51.72
2023-07-20T22:16:07.667Z,51.77
2023-07-20T22:18:48.803Z,51.75
2023-07-20T22:21:29.508Z,52.65
2023-07-20T22:24:09.109Z,53.05
2023-07-20T22:26:48.729Z,53.22
2023-07-20T22:29:28.179Z,53.83
2023-07-20T22:32:14.650Z,53.57
2023-07-20T22:34:53.977Z,52.94
2023-07-20T22:37:33.364Z,52.80
2023-07-20T22:40:14.387Z,52.08
2023-07-20T22:42:53.864Z,50.81
2023-07-20T22:45:33.821Z,50.01
2023-07-20T22:48:19.540Z,50.09
2023-07-20T22:51:01.060Z,52.42
2023-07-20T22:53:41.448Z,52.69
2023-07-20T22:56:20.937Z,52.36
2023-07-20T22:59:00.578Z,52.20
2023-07-20T23:01:39.983Z,53.04
2023-07-20T23:04:25.401Z,53.53
2023-07-20T23:07:05.660Z,53.73
2023-07-20T23:09:45.989Z,53.01
2023-07-20T23:12:25.570Z,53.02
2023-07-20T23:15:06.226Z,52.25
2023-07-20T23:17:47.516Z,51.97
2023-07-20T23:20:32.080Z,52.63
2023-07-20T23:23:12.295Z,52.71
2023-07-20T23:25:51.626Z,52.84
2023-07-20T23:28:31.276Z,53.06
2023-07-20T23:31:11.465Z,54.29
2023-07-20T23:33:51.402Z,53.91
2023-07-20T23:36:35.812Z,53.07
2023-07-20T23:39:15.827Z,51.96
2023-07-20T23:41:56.533Z,51.60
2023-07-20T23:44:35.874Z,51.95
2023-07-20T23:47:16.617Z,51.52
2023-07-20T23:49:55.952Z,51.28
2023-07-20T23:52:42.554Z,52.00
2023-07-20T23:55:22.537Z,52.53
2023-07-20T23:58:02.414Z,52.34
